createdAt,value
2019-04-06T00:00:13.097Z,36.85
2019-04-06T00:02:41.737Z,33.88
2019-04-06T00:05:11.099Z,34.83
2019-04-06T00:07:39.678Z,34.60
2019-04-06T00:10:08.648Z,36.68
2019-04-06T00:12:37.401Z,35.17
2019-04-06T00:15:07.723Z,36.53
2019-04-06T00:17:36.290Z,37.90
2019-04-06T00:20:06.607Z,38.08
2019-04-06T00:22:35.190Z,36.90
2019-04-06T00:25:04.786Z,37.97
2019-04-06T00:27:33.383Z,35.97
2019-04-06T00:30:01.990Z,36.83
2019-04-06T00:32:38.196Z,37.35
2019-04-06T00:35:07.005Z,37.75
2019-04-06T00:37:36.299Z,35.14
2019-04-06T00:40:05.649Z,37.23
2019-04-06T00:42:34.290Z,38.60
2019-04-06T00:45:03.255Z,38.53
2019-04-06T00:47:31.980Z,37.13
2019-04-06T00:50:00.568Z,37.63
2019-04-06T00:52:29.254Z,37.83
2019-04-06T00:54:57.948Z,36.38
2019-04-06T00:57:26.546Z,37.70
2019-04-06T00:59:55.169Z,36.30
2019-04-06T01:02:23.853Z,36.03
2019-04-06T01:04:52.416Z,37.67
2019-04-06T01:07:23.172Z,37.83
2019-04-06T01:09:51.729Z,38.00
2019-04-06T01:12:20.438Z,36.38
2019-04-06T01:14:49.390Z,40.67
2019-04-06T01:17:18.052Z,38.38
2019-04-06T01:19:47.025Z,36.97
2019-04-06T01:22:15.763Z,38.13
2019-04-06T01:24:44.419Z,37.63
2019-04-06T01:27:13.045Z,37.42
2019-04-06T01:29:41.616Z,36.33
2019-04-06T01:32:10.185Z,39.30
2019-04-06T01:34:38.909Z,39.85
2019-04-06T01:37:07.484Z,39.75
2019-04-06T01:39:36.065Z,37.67
2019-04-06T01:42:04.708Z,40.20
2019-04-06T01:44:33.347Z,38.88
2019-04-06T01:47:01.927Z,37.38
2019-04-06T01:49:30.503Z,37.33
2019-04-06T01:51:59.148Z,38.98
2019-04-06T01:54:27.727Z,39.27
2019-04-06T01:56:56.576Z,39.80
2019-04-06T01:59:25.179Z,40.10
2019-04-06T02:01:55.414Z,40.23
2019-04-06T02:04:24.033Z,37.85
2019-04-06T02:06:52.536Z,39.45
2019-04-06T02:09:21.278Z,39.38
2019-04-06T02:11:49.861Z,40.03
2019-04-06T02:14:18.522Z,39.40
2019-04-06T02:16:47.543Z,40.60
2019-04-06T02:19:16.177Z,41.25
2019-04-06T02:21:44.881Z,41.27
2019-04-06T02:24:13.435Z,40.00
2019-04-06T02:26:42.014Z,42.03
2019-04-06T02:29:10.778Z,40.80
2019-04-06T02:31:56.022Z,38.42
2019-04-06T02:34:29.373Z,41.25
2019-04-06T02:37:02.515Z,41.53
2019-04-06T02:39:38.760Z,41.65
2019-04-06T02:42:18.309Z,40.90
2019-04-06T02:44:46.946Z,42.00
2019-04-06T02:47:15.763Z,42.40
2019-04-06T02:49:44.657Z,41.17
2019-04-06T02:52:13.275Z,42.50
2019-04-06T02:54:41.888Z,43.35
2019-04-06T02:57:10.508Z,44.77
2019-04-06T02:59:39.340Z,42.20
2019-04-06T03:02:08.288Z,42.38
2019-04-06T03:04:36.872Z,44.90
2019-04-06T03:07:05.699Z,41.60
2019-04-06T03:09:34.396Z,43.00
2019-04-06T03:12:03.059Z,43.78
2019-04-06T03:14:32.038Z,42.93
2019-04-06T03:17:00.748Z,42.55
2019-04-06T03:19:29.445Z,43.17
2019-04-06T03:21:58.046Z,43.30
2019-04-06T03:24:26.914Z,44.38
2019-04-06T03:27:01.970Z,43.45
2019-04-06T03:29:26.095Z,44.18
2019-04-06T03:31:54.713Z,44.93
2019-04-06T03:34:23.490Z,43.02
2019-04-06T03:36:52.288Z,48.25
2019-04-06T03:39:20.858Z,44.23
2019-04-06T03:41:49.511Z,44.83
2019-04-06T03:44:18.745Z,43.42
2019-04-06T03:46:47.418Z,42.98
2019-04-06T03:49:16.169Z,44.08
2019-04-06T03:51:45.007Z,46.50
2019-04-06T03:54:13.635Z,44.85
2019-04-06T03:56:42.430Z,43.68
2019-04-06T03:59:11.226Z,44.08
2019-04-06T04:01:40.849Z,44.58
2019-04-06T04:04:09.403Z,43.30
2019-04-06T04:06:38.089Z,44.80
2019-04-06T04:09:06.869Z,44.53
2019-04-06T04:11:35.531Z,44.50
2019-04-06T04:14:04.256Z,44.23
2019-04-06T04:16:32.828Z,44.25
2019-04-06T04:19:01.530Z,45.63
2019-04-06T04:21:30.255Z,43.58
2019-04-06T04:23:59.342Z,42.48
2019-04-06T04:26:28.008Z,42.83
2019-04-06T04:28:56.588Z,44.88
2019-04-06T04:31:25.465Z,43.28
2019-04-06T04:33:54.081Z,43.08
2019-04-06T04:36:22.667Z,44.33
2019-04-06T04:38:51.473Z,44.58
2019-04-06T04:41:20.340Z,44.13
2019-04-06T04:43:49.107Z,41.40
2019-04-06T04:46:17.702Z,41.88
2019-04-06T04:48:46.420Z,43.00
2019-04-06T04:51:15.033Z,42.78
2019-04-06T04:53:43.784Z,44.30
2019-04-06T04:56:12.710Z,44.03
2019-04-06T04:58:42.614Z,41.35
2019-04-06T05:01:11.218Z,41.40
2019-04-06T05:03:40.099Z,41.48
2019-04-06T05:06:08.729Z,42.58
2019-04-06T05:08:37.344Z,42.00
2019-04-06T05:11:06.028Z,42.58
2019-04-06T05:13:34.627Z,41.23
2019-04-06T05:16:14.553Z,44.85
2019-04-06T05:18:43.630Z,41.45
2019-04-06T05:21:12.953Z,40.45
2019-04-06T05:23:41.643Z,41.77
2019-04-06T05:26:10.421Z,44.37
2019-04-06T05:28:39.429Z,43.00
2019-04-06T05:31:08.009Z,41.02
2019-04-06T05:33:36.589Z,42.38
2019-04-06T05:36:05.953Z,42.08
2019-04-06T05:38:34.827Z,43.67
2019-04-06T05:41:03.477Z,40.35
2019-04-06T05:43:32.419Z,41.25
2019-04-06T05:46:01.011Z,41.18
2019-04-06T05:48:29.614Z,42.48
2019-04-06T05:50:58.485Z,42.78
2019-04-06T05:53:27.092Z,43.78
2019-04-06T05:55:55.969Z,41.23
2019-04-06T05:58:24.714Z,41.73
2019-04-06T06:00:53.289Z,41.33
2019-04-06T06:03:21.890Z,40.52
2019-04-06T06:05:51.144Z,39.93
2019-04-06T06:08:19.931Z,41.10
2019-04-06T06:10:48.743Z,41.50
2019-04-06T06:13:17.327Z,41.45
2019-04-06T06:15:45.937Z,40.75
2019-04-06T06:18:25.387Z,42.67
2019-04-06T06:20:44.839Z,41.75
2019-04-06T06:23:13.425Z,41.08
2019-04-06T06:25:42.258Z,40.03
2019-04-06T06:28:14.990Z,41.60
2019-04-06T06:30:41.223Z,42.98
2019-04-06T06:33:10.044Z,41.80
2019-04-06T06:35:38.743Z,44.23
2019-04-06T06:38:07.436Z,42.45
2019-04-06T06:40:36.020Z,42.05
2019-04-06T06:43:04.749Z,42.83
2019-04-06T06:45:33.727Z,42.90
2019-04-06T06:48:02.374Z,43.63
2019-04-06T06:50:31.049Z,43.85
2019-04-06T06:52:59.658Z,42.27
2019-04-06T06:55:28.247Z,41.35
2019-04-06T06:57:57.595Z,42.05
2019-04-06T07:00:26.195Z,42.60
2019-04-06T07:02:54.869Z,43.17
2019-04-06T07:05:23.642Z,41.95
2019-04-06T07:07:52.474Z,43.75
2019-04-06T07:10:21.069Z,44.53
2019-04-06T07:12:49.648Z,42.80
2019-04-06T07:15:18.232Z,43.17
2019-04-06T07:17:47.091Z,43.90
2019-04-06T07:20:16.064Z,42.35
2019-04-06T07:22:44.628Z,40.20
2019-04-06T07:25:13.706Z,43.40
2019-04-06T07:27:42.740Z,42.10
2019-04-06T07:30:12.108Z,42.45
2019-04-06T07:32:40.886Z,42.70
2019-04-06T07:35:09.892Z,43.78
2019-04-06T07:37:38.681Z,42.70
2019-04-06T07:40:10.837Z,42.33
2019-04-06T07:42:39.372Z,41.65
2019-04-06T07:45:09.356Z,43.52
2019-04-06T07:47:38.092Z,42.67
2019-04-06T07:50:07.711Z,42.25
2019-04-06T07:52:36.422Z,43.17
2019-04-06T07:55:07.237Z,44.33
2019-04-06T07:57:36.171Z,44.75
2019-04-06T08:00:08.445Z,44.35
2019-04-06T08:02:37.233Z,43.75
2019-04-06T08:05:07.533Z,43.45
2019-04-06T08:07:36.694Z,43.50
2019-04-06T08:10:06.408Z,46.05
2019-04-06T08:12:35.206Z,45.08
2019-04-06T08:15:05.447Z,43.90
2019-04-06T08:17:34.091Z,45.73
2019-04-06T08:20:03.268Z,46.33
2019-04-06T08:22:31.914Z,45.40
2019-04-06T08:25:00.496Z,45.13
2019-04-06T08:27:29.274Z,44.23
2019-04-06T08:29:58.063Z,43.68
2019-04-06T08:32:26.782Z,44.60
2019-04-06T08:34:55.403Z,45.58
2019-04-06T08:37:23.983Z,46.00
2019-04-06T08:39:52.651Z,45.03
2019-04-06T08:42:21.191Z,43.55
2019-04-06T08:44:50.464Z,44.10
2019-04-06T08:47:19.638Z,43.83
2019-04-06T08:49:48.306Z,45.63
2019-04-06T08:52:16.961Z,45.12
2019-04-06T08:54:47.288Z,43.28
2019-04-06T08:57:16.474Z,44.45
2019-04-06T08:59:45.396Z,44.93
2019-04-06T09:02:14.197Z,44.60
2019-04-06T09:04:44.130Z,42.78
2019-04-06T09:07:12.745Z,43.68
2019-04-06T09:09:42.287Z,42.78
2019-04-06T09:12:11.275Z,43.42
2019-04-06T09:14:39.881Z,43.35
2019-04-06T09:17:08.628Z,44.60
2019-04-06T09:19:41.255Z,43.60
2019-04-06T09:22:09.861Z,42.88
2019-04-06T09:24:40.518Z,42.20
2019-04-06T09:27:18.398Z,41.95
2019-04-06T09:29:47.029Z,42.58
2019-04-06T09:32:15.714Z,40.67
2019-04-06T09:34:52.104Z,42.48
2019-04-06T09:37:21.019Z,41.92
2019-04-06T09:39:50.569Z,41.80
2019-04-06T09:42:20.006Z,42.35
2019-04-06T09:44:50.259Z,42.88
2019-04-06T09:47:24.009Z,43.02
2019-04-06T09:50:10.374Z,42.73
2019-04-06T09:52:43.721Z,42.05
2019-04-06T09:55:42.984Z,44.03
2019-04-06T09:58:29.418Z,43.75
2019-04-06T10:01:01.147Z,41.58
2019-04-06T10:03:34.420Z,44.27
2019-04-06T10:06:16.781Z,44.00
2019-04-06T10:08:56.604Z,44.97
2019-04-06T10:11:28.021Z,45.12
2019-04-06T10:13:59.680Z,44.65
2019-04-06T10:16:35.001Z,43.55
2019-04-06T10:19:06.575Z,45.35
2019-04-06T10:21:48.646Z,46.42
2019-04-06T10:24:19.738Z,43.83
2019-04-06T10:27:03.809Z,45.33
2019-04-06T10:29:47.611Z,44.55
2019-04-06T10:32:18.763Z,43.50
2019-04-06T10:34:49.029Z,44.10
2019-04-06T10:37:21.774Z,42.95
2019-04-06T10:40:04.032Z,44.23
2019-04-06T10:42:38.677Z,42.40
2019-04-06T10:45:12.465Z,41.65
2019-04-06T10:47:58.063Z,39.58
2019-04-06T10:50:28.481Z,39.70
2019-04-06T10:53:01.308Z,39.35
2019-04-06T10:55:34.447Z,39.63
2019-04-06T10:58:15.236Z,41.75
2019-04-06T11:01:01.870Z,39.80
2019-04-06T11:03:38.274Z,40.85
2019-04-06T11:06:08.497Z,41.75
2019-04-06T11:08:41.841Z,39.92
2019-04-06T11:11:28.802Z,41.95
2019-04-06T11:14:05.012Z,40.15
2019-04-06T11:16:35.233Z,42.08
2019-04-06T11:19:05.896Z,42.20
2019-04-06T11:21:44.868Z,41.47
2019-04-06T11:24:26.393Z,42.95
2019-04-06T11:26:56.840Z,42.38
2019-04-06T11:29:29.693Z,41.15
2019-04-06T11:32:06.860Z,46.35
2019-04-06T11:34:48.931Z,40.70
2019-04-06T11:37:33.319Z,40.03
2019-04-06T11:40:06.163Z,38.55
2019-04-06T11:42:48.417Z,38.53
2019-04-06T11:45:18.626Z,37.78
2019-04-06T11:47:54.760Z,37.83
2019-04-06T11:50:25.172Z,38.45
2019-04-06T11:53:10.310Z,44.45
2019-04-06T11:55:40.555Z,42.67
2019-04-06T11:58:23.007Z,40.20
2019-04-06T12:00:56.077Z,43.60
2019-04-06T12:03:35.295Z,45.35
2019-04-06T12:06:20.643Z,43.40
2019-04-06T12:09:08.869Z,42.57
2019-04-06T12:11:39.603Z,42.90
2019-04-06T12:14:22.187Z,41.68
2019-04-06T12:16:58.738Z,42.33
2019-04-06T12:19:38.303Z,41.85
2019-04-06T12:22:20.914Z,42.27
2019-04-06T12:24:59.940Z,43.55
2019-04-06T12:27:46.539Z,41.33
2019-04-06T12:30:23.378Z,40.20
2019-04-06T12:33:10.584Z,40.25
2019-04-06T12:35:43.571Z,42.48
2019-04-06T12:38:30.758Z,43.73
2019-04-06T12:41:14.001Z,39.48
2019-04-06T12:44:00.392Z,40.97
2019-04-06T12:46:33.513Z,39.58
2019-04-06T12:49:06.582Z,41.15
2019-04-06T12:51:55.510Z,40.15
2019-04-06T12:54:44.587Z,37.70
2019-04-06T12:57:32.077Z,37.45
2019-04-06T13:00:03.610Z,38.98
2019-04-06T13:02:51.093Z,39.67
2019-04-06T13:05:33.690Z,39.20
2019-04-06T13:08:06.711Z,40.00
2019-04-06T13:10:38.383Z,38.63
2019-04-06T13:13:11.456Z,41.25
2019-04-06T13:15:57.535Z,40.35
2019-04-06T13:18:31.571Z,40.48
2019-04-06T13:21:07.917Z,41.03
2019-04-06T13:23:53.216Z,37.80
2019-04-06T13:26:33.118Z,39.75
2019-04-06T13:29:10.361Z,39.80
2019-04-06T13:31:53.291Z,38.30
2019-04-06T13:34:24.278Z,40.05
2019-04-06T13:37:00.259Z,39.08
2019-04-06T13:39:30.828Z,37.93
2019-04-06T13:42:03.653Z,37.33
2019-04-06T13:44:50.982Z,37.60
2019-04-06T13:47:21.211Z,37.03
2019-04-06T13:50:04.390Z,36.95
2019-04-06T13:52:49.638Z,37.45
2019-04-06T13:55:36.336Z,36.90
2019-04-06T13:58:07.673Z,37.45
2019-04-06T14:00:57.819Z,35.10
2019-04-06T14:03:28.121Z,36.05
2019-04-06T14:06:14.321Z,37.13
2019-04-06T14:08:48.774Z,34.55
2019-04-06T14:11:35.378Z,35.97
2019-04-06T14:14:18.905Z,37.08
2019-04-06T14:16:50.603Z,36.63
2019-04-06T14:19:20.718Z,37.73
2019-04-06T14:22:07.566Z,37.90
2019-04-06T14:24:53.733Z,36.53
2019-04-06T14:27:30.161Z,37.03
2019-04-06T14:30:07.001Z,35.43
2019-04-06T14:32:55.134Z,39.70
2019-04-06T14:35:25.748Z,35.65
2019-04-06T14:38:12.304Z,35.33
2019-04-06T14:40:54.789Z,34.50
2019-04-06T14:43:29.062Z,36.33
2019-04-06T14:46:00.468Z,38.33
2019-04-06T14:48:33.794Z,38.28
2019-04-06T14:51:19.485Z,36.77
2019-04-06T14:53:53.681Z,36.27
2019-04-06T14:56:40.477Z,34.38
2019-04-06T14:59:21.424Z,35.60
2019-04-06T15:02:10.393Z,35.95
2019-04-06T15:04:55.733Z,35.50
2019-04-06T15:07:34.971Z,38.50
2019-04-06T15:10:18.730Z,37.20
2019-04-06T15:12:49.010Z,38.77
2019-04-06T15:15:19.898Z,40.53
2019-04-06T15:17:56.856Z,39.10
2019-04-06T15:20:27.107Z,37.70
2019-04-06T15:23:13.551Z,41.15
2019-04-06T15:25:45.929Z,42.13
2019-04-06T15:28:34.398Z,40.70
2019-04-06T15:31:13.905Z,40.65
2019-04-06T15:33:47.059Z,42.52
2019-04-06T15:36:23.205Z,42.38
2019-04-06T15:38:54.448Z,40.88
2019-04-06T15:41:36.615Z,41.30
2019-04-06T15:44:07.479Z,40.28
2019-04-06T15:46:41.461Z,40.60
2019-04-06T15:49:14.887Z,39.30
2019-04-06T15:52:10.602Z,38.97
2019-04-06T15:54:48.015Z,39.55
2019-04-06T15:57:24.512Z,38.25
2019-04-06T15:59:54.734Z,37.17
2019-04-06T16:02:37.138Z,38.33
2019-04-06T16:05:09.374Z,39.38
2019-04-06T16:07:39.604Z,39.90
2019-04-06T16:10:10.143Z,39.18
2019-04-06T16:12:40.365Z,39.70
2019-04-06T16:15:11.245Z,36.28
2019-04-06T16:17:41.477Z,39.73
2019-04-06T16:20:14.676Z,38.40
2019-04-06T16:22:52.937Z,40.17
2019-04-06T16:25:30.409Z,39.42
2019-04-06T16:28:07.045Z,40.35
2019-04-06T16:30:42.811Z,39.50
2019-04-06T16:33:16.161Z,40.88
2019-04-06T16:35:55.941Z,40.60
2019-04-06T16:38:38.832Z,40.38
2019-04-06T16:41:15.258Z,39.90
2019-04-06T16:43:46.160Z,41.13
2019-04-06T16:46:31.612Z,38.85
2019-04-06T16:49:07.793Z,37.47
2019-04-06T16:51:54.209Z,38.15
2019-04-06T16:54:31.472Z,37.38
2019-04-06T16:57:20.081Z,37.43
2019-04-06T17:00:17.079Z,37.77
2019-04-06T17:02:55.128Z,36.65
2019-04-06T17:05:34.941Z,37.67
2019-04-06T17:08:14.115Z,35.30
2019-04-06T17:10:48.307Z,37.60
2019-04-06T17:13:28.444Z,37.13
2019-04-06T17:16:01.824Z,37.45
2019-04-06T17:18:48.656Z,37.93
2019-04-06T17:21:22.098Z,35.92
2019-04-06T17:24:10.217Z,37.03
2019-04-06T17:26:41.136Z,39.70
2019-04-06T17:29:17.523Z,37.35
2019-04-06T17:31:50.832Z,38.43
2019-04-06T17:34:36.202Z,38.83
2019-04-06T17:37:16.056Z,38.30
2019-04-06T17:39:46.282Z,38.57
2019-04-06T17:42:23.443Z,37.80
2019-04-06T17:44:54.443Z,39.18
2019-04-06T17:47:41.199Z,38.55
2019-04-06T17:50:20.222Z,39.57
2019-04-06T17:53:07.203Z,40.58
2019-04-06T17:55:43.051Z,40.73
2019-04-06T17:58:18.939Z,39.07
2019-04-06T18:01:01.032Z,39.67
2019-04-06T18:03:47.812Z,40.75
2019-04-06T18:06:22.010Z,40.65
2019-04-06T18:11:28.306Z,37.57
2019-04-06T18:13:57.551Z,39.05
2019-04-06T18:16:30.038Z,40.45
2019-04-06T18:18:58.785Z,39.73
2019-04-06T18:21:27.965Z,40.67
2019-04-06T18:23:56.599Z,41.15
2019-04-06T18:26:26.008Z,39.75
2019-04-06T18:28:55.141Z,39.58
2019-04-06T18:31:33.961Z,41.25
2019-04-06T18:34:02.755Z,40.75
2019-04-06T18:36:51.125Z,38.67
2019-04-06T18:39:20.699Z,39.38
2019-04-06T18:41:49.287Z,38.98
2019-04-06T18:44:17.977Z,39.80
2019-04-06T18:46:46.560Z,38.55
2019-04-06T18:49:15.139Z,38.33
2019-04-06T18:51:43.919Z,39.77
2019-04-06T18:54:12.997Z,39.70
2019-04-06T18:56:42.297Z,39.15
2019-04-06T18:59:11.437Z,39.42
2019-04-06T19:01:40.415Z,39.30
2019-04-06T19:04:09.089Z,39.23
2019-04-06T19:06:38.494Z,39.35
2019-04-06T19:09:20.711Z,41.55
2019-04-06T19:11:39.380Z,38.90
2019-04-06T19:14:07.998Z,39.10
2019-04-06T19:16:36.694Z,38.95
2019-04-06T19:19:06.101Z,39.00
2019-04-06T19:21:35.042Z,38.30
2019-04-06T19:24:03.658Z,39.80
2019-04-06T19:26:33.861Z,40.03
2019-04-06T19:29:02.797Z,37.87
2019-04-06T19:31:31.746Z,37.55
2019-04-06T19:34:00.518Z,37.37
2019-04-06T19:36:29.534Z,36.98
2019-04-06T19:38:58.212Z,39.08
2019-04-06T19:41:27.155Z,39.33
2019-04-06T19:43:55.727Z,37.70
2019-04-06T19:46:24.747Z,38.15
2019-04-06T19:48:53.395Z,38.17
2019-04-06T19:51:21.984Z,36.35
2019-04-06T19:53:51.158Z,37.10
2019-04-06T19:56:20.093Z,36.33
2019-04-06T19:58:49.287Z,38.23
2019-04-06T20:01:17.958Z,37.95
2019-04-06T20:03:46.696Z,39.33
2019-04-06T20:06:15.536Z,38.00
2019-04-06T20:08:44.183Z,38.60
2019-04-06T20:11:12.861Z,38.05
2019-04-06T20:13:41.673Z,37.88
2019-04-06T20:16:10.887Z,37.67
2019-04-06T20:18:40.152Z,37.60
2019-04-06T20:21:09.799Z,37.80
2019-04-06T20:23:39.039Z,37.25
2019-04-06T20:26:09.097Z,37.55
2019-04-06T20:28:39.025Z,37.15
2019-04-06T20:31:08.225Z,36.05
2019-04-06T20:33:46.798Z,36.40
2019-04-06T20:36:07.380Z,35.63
2019-04-06T20:38:36.034Z,36.73
2019-04-06T20:41:05.245Z,39.18
2019-04-06T20:43:34.228Z,35.65
2019-04-06T20:46:03.050Z,37.38
2019-04-06T20:48:31.704Z,37.58
2019-04-06T20:51:00.416Z,37.28
2019-04-06T20:53:28.996Z,36.30
2019-04-06T20:55:57.702Z,38.08
2019-04-06T20:58:26.322Z,38.40
2019-04-06T21:00:55.476Z,37.17
2019-04-06T21:03:24.331Z,37.40
2019-04-06T21:05:53.089Z,37.03
2019-04-06T21:08:21.828Z,36.48
2019-04-06T21:10:50.900Z,37.20
2019-04-06T21:13:20.139Z,37.75
2019-04-06T21:15:48.928Z,37.80
2019-04-06T21:18:17.807Z,35.50
2019-04-06T21:20:48.045Z,37.65
2019-04-06T21:23:17.203Z,37.88
2019-04-06T21:25:46.480Z,36.57
2019-04-06T21:28:15.452Z,36.75
2019-04-06T21:30:44.341Z,36.48
2019-04-06T21:33:13.231Z,36.20
2019-04-06T21:35:42.434Z,36.33
2019-04-06T21:38:12.179Z,36.75
2019-04-06T21:40:41.099Z,35.83
2019-04-06T21:43:09.999Z,36.38
2019-04-06T21:45:39.325Z,35.60
2019-04-06T21:48:08.013Z,35.70
2019-04-06T21:50:36.687Z,36.35
2019-04-06T21:53:05.274Z,35.90
2019-04-06T21:55:33.914Z,37.95
2019-04-06T21:58:03.026Z,36.85
2019-04-06T22:00:50.062Z,36.98
2019-04-06T22:03:19.037Z,38.55
2019-04-06T22:05:47.936Z,38.30
2019-04-06T22:08:16.539Z,38.35
2019-04-06T22:10:45.876Z,40.00
2019-04-06T22:13:15.999Z,39.58
2019-04-06T22:15:45.049Z,40.27
2019-04-06T22:18:14.195Z,40.28
2019-04-06T22:20:43.757Z,40.07
2019-04-06T22:23:13.105Z,38.45
2019-04-06T22:25:42.178Z,37.60
2019-04-06T22:28:10.941Z,39.18
2019-04-06T22:30:40.512Z,39.85
2019-04-06T22:33:09.273Z,39.95
2019-04-06T22:35:39.004Z,39.74
2019-04-06T22:38:08.119Z,40.23
2019-04-06T22:40:37.063Z,39.15
2019-04-06T22:43:05.886Z,39.20
2019-04-06T22:45:35.048Z,39.27
2019-04-06T22:48:03.737Z,40.20
2019-04-06T22:50:32.693Z,37.17
2019-04-06T22:53:01.353Z,39.73
2019-04-06T22:55:29.957Z,39.58
2019-04-06T22:57:58.773Z,39.00
2019-04-06T23:00:32.109Z,41.00
2019-04-06T23:03:05.427Z,40.05
2019-04-06T23:05:47.970Z,40.83
2019-04-06T23:08:16.830Z,39.80
2019-04-06T23:10:45.688Z,39.23
2019-04-06T23:13:15.040Z,41.53
2019-04-06T23:15:43.959Z,39.27
2019-04-06T23:18:12.848Z,40.30
2019-04-06T23:20:41.553Z,40.78
2019-04-06T23:23:10.371Z,41.65
2019-04-06T23:25:39.612Z,39.40
2019-04-06T23:28:08.257Z,39.15
2019-04-06T23:30:37.562Z,38.17
2019-04-06T23:33:06.638Z,39.88
2019-04-06T23:35:35.768Z,39.25
2019-04-06T23:38:04.321Z,37.70
2019-04-06T23:40:33.040Z,39.27
2019-04-06T23:43:02.817Z,39.95
2019-04-06T23:45:31.931Z,39.30
2019-04-06T23:48:01.605Z,40.03
2019-04-06T23:50:31.440Z,38.53
2019-04-06T23:53:00.706Z,39.27
2019-04-06T23:55:30.018Z,39.58
2019-04-06T23:57:59.529Z,38.53
